This is the latest recevied weather packets stored in our database for station/object AG1T-1. If no packets are shown the sender has not sent any weather packets the latest 1 day(s).
| Time | Temp. | Humidity | Pressure | Rain* | Wind** | Luminosity | Snow |
|---|---|---|---|---|---|---|---|
| 1836274377 | 20° C | 42% | 1021 hPa | 0 mm | 0.45 m/s, 134° | 0 W/m² | - |
| 1836274227 | 20° C | 43% | 1021 hPa | 0 mm | 0 m/s | 0 W/m² | - |
| 1778059203 | 6.67° C | 64% | 1019.2 hPa | 0 mm | 0.45 m/s, 183° | 0 W/m² | - |
| 1778058603 | 6.67° C | 65% | 1019.2 hPa | 0.25 mm | 0 m/s | 0 W/m² | - |
| 1778058003 | 6.67° C | 67% | 1019.2 hPa | 0.25 mm | 0.45 m/s, 243° | 0 W/m² | - |
| 1778057403 | 7.22° C | 68% | 1019.1 hPa | 0.25 mm | 0.45 m/s, 263° | 0 W/m² | - |
| 1778056803 | 7.22° C | 67% | 1019.3 hPa | 0.25 mm | 0.89 m/s, 274° | 0 W/m² | - |
| 1778056203 | 7.78° C | 66% | 1019.6 hPa | 0.25 mm | 0.45 m/s, 267° | 0 W/m² | - |
| 1778055603 | 7.78° C | 65% | 1019.2 hPa | 0.25 mm | 0.89 m/s, 261° | 0 W/m² | - |
| 1778055003 | 8.33° C | 61% | 1019.1 hPa | 0 mm | 0.45 m/s, 152° | 0 W/m² | - |
| 1778054403 | 8.89° C | 57% | 1018.8 hPa | 0 mm | 0.45 m/s, 166° | 0 W/m² | - |
| 1778053803 | 8.89° C | 58% | 1018.2 hPa | 0 mm | 0 m/s | 0 W/m² | - |
| 1778053203 | 8.89° C | 59% | 1017.9 hPa | 0 mm | 0.89 m/s, 360° | 0 W/m² | - |
| 1778052603 | 8.89° C | 60% | 1017.8 hPa | 0 mm | 0.45 m/s, 24° | 0 W/m² | - |
| 1778052003 | 8.33° C | 61% | 1017.7 hPa | 0 mm | 1.79 m/s, 115° | 0 W/m² | - |
| 1778051403 | 8.89° C | 61% | 1017.4 hPa | 0 mm | 1.34 m/s, 100° | 0 W/m² | - |
| 1778050803 | 10° C | 61% | 1016.6 hPa | 0 mm | 0.89 m/s, 88° | 0 W/m² | - |
| 1778050203 | 10° C | 59% | 1016.5 hPa | 0 mm | 1.34 m/s, 112° | 0 W/m² | - |
| 1778049603 | 11.11° C | 56% | 1016.2 hPa | 0 mm | 1.34 m/s, 71° | 0 W/m² | - |
| 1778049003 | 11.11° C | 60% | 1015.8 hPa | 0 mm | 1.79 m/s, 333° | 0 W/m² | - |
| 1778048403 | 11.67° C | 58% | 1015.3 hPa | 0 mm | 1.34 m/s, 332° | 0 W/m² | - |
| 1778047803 | 11.67° C | 55% | 1015 hPa | 0 mm | 1.79 m/s, 328° | 0 W/m² | - |
| 1778047203 | 11.67° C | 59% | 1014.9 hPa | 0 mm | 0.89 m/s, 315° | 0 W/m² | - |
| 1778046603 | 12.78° C | 59% | 1014.8 hPa | 0 mm | 0.89 m/s, 316° | 0 W/m² | - |
| 1778046003 | 12.78° C | 48% | 1014.5 hPa | 0 mm | 0.89 m/s, 328° | 0 W/m² | - |
* Rain latest hour (hover to see other rain measurements)
** Current wind speed in m/s (hover to see current wind gust speed)